Time;durP1;ratioP1;P1;durP2;ratioP2;P2;SDS_P1;SDS_P2;PMS_P1;PMS_P2;Temp;Humidity;BMP_temperature;BMP_pressure;BME280_temperature;BME280_humidity;BME280_pressure;Samples;Min_cycle;Max_cycle;Signal;HPM_P1;HPM_P2
2023/10/09 00:01:45;;;;;;;2.43;1.57;;;11.10;99.90;;;;;;5079276;28;20188;-45
2023/10/09 00:04:13;;;;;;;3.33;1.70;;;11.10;99.90;;;;;;5070132;28;20221;-47
2023/10/09 00:06:43;;;;;;;1.77;1.40;;;11.10;99.90;;;;;;5073966;28;20198;-44
2023/10/09 00:09:30;;;;;;;4.27;1.70;;;11.10;99.90;;;;;;5082055;28;20275;-44
2023/10/09 00:11:57;;;;;;;1.87;1.43;;;11.10;99.90;;;;;;5082394;28;20285;-47
2023/10/09 00:14:25;;;;;;;7.23;1.90;;;11.00;99.90;;;;;;5065491;28;20194;-45
2023/10/09 00:16:58;;;;;;;2.20;1.97;;;10.90;99.90;;;;;;5079159;28;20198;-45
2023/10/09 00:19:30;;;;;;;3.93;1.90;;;10.90;99.90;;;;;;5075897;28;20218;-47
2023/10/09 00:22:04;;;;;;;1.67;1.57;;;10.90;99.90;;;;;;5086022;28;20205;-45
2023/10/09 00:24:33;;;;;;;3.20;2.03;;;10.90;99.90;;;;;;5077572;28;20580;-44
2023/10/09 00:27:11;;;;;;;5.63;1.70;;;10.80;99.90;;;;;;5081671;28;20285;-45
2023/10/09 00:29:45;;;;;;;4.50;1.53;;;10.80;99.90;;;;;;5077837;28;20240;-49
2023/10/09 00:32:22;;;;;;;4.23;1.57;;;10.80;99.90;;;;;;5037237;28;20217;-46
2023/10/09 00:34:50;;;;;;;2.90;1.90;;;10.80;99.90;;;;;;5074401;28;20186;-48
2023/10/09 00:37:22;;;;;;;3.07;1.53;;;10.80;99.90;;;;;;5071658;28;20277;-48
2023/10/09 00:39:55;;;;;;;3.13;1.40;;;10.80;99.90;;;;;;5067677;28;20210;-49
2023/10/09 00:42:27;;;;;;;4.10;1.77;;;10.80;99.90;;;;;;5067345;28;20231;-51
2023/10/09 00:44:55;;;;;;;4.23;1.33;;;10.70;99.90;;;;;;5079040;28;20210;-47
2023/10/09 00:47:26;;;;;;;4.70;1.40;;;10.70;99.90;;;;;;5053013;28;20665;-46
2023/10/09 00:49:59;;;;;;;4.20;1.60;;;10.80;99.90;;;;;;5078417;28;20290;-51
2023/10/09 00:52:33;;;;;;;1.70;1.47;;;10.80;99.90;;;;;;5060520;28;20209;-47
2023/10/09 00:55:08;;;;;;;2.87;1.60;;;10.80;99.90;;;;;;5080457;28;20672;-52
2023/10/09 00:57:40;;;;;;;4.07;1.57;;;10.80;99.90;;;;;;5076123;28;20196;-47
2023/10/09 01:00:23;;;;;;;3.67;1.67;;;10.70;99.90;;;;;;5073623;28;20217;-48
2023/10/09 01:02:52;;;;;;;2.97;1.77;;;10.70;99.90;;;;;;5055765;28;20285;-45
2023/10/09 01:05:19;;;;;;;3.23;1.73;;;10.70;99.90;;;;;;5079173;28;20298;-46
2023/10/09 01:07:58;;;;;;;2.43;1.70;;;10.70;99.90;;;;;;5070273;28;20226;-45
2023/10/09 01:10:33;;;;;;;1.97;1.57;;;10.60;99.90;;;;;;5077773;28;20218;-48
2023/10/09 01:12:59;;;;;;;2.07;1.37;;;10.60;99.90;;;;;;5066925;28;20201;-46
2023/10/09 01:15:43;;;;;;;4.20;1.40;;;10.60;99.90;;;;;;5069692;28;20281;-46
2023/10/09 01:18:11;;;;;;;4.70;1.77;;;10.60;99.90;;;;;;5052245;28;20288;-45
2023/10/09 01:20:41;;;;;;;3.87;1.57;;;10.60;99.90;;;;;;5065813;28;21022;-46
2023/10/09 01:23:11;;;;;;;6.83;1.63;;;10.60;99.90;;;;;;5080340;28;20284;-48
2023/10/09 01:25:49;;;;;;;1.90;1.40;;;10.60;99.90;;;;;;5069261;28;21069;-47
2023/10/09 01:28:16;;;;;;;2.20;1.37;;;10.60;99.90;;;;;;5080267;28;20274;-52
2023/10/09 01:30:47;;;;;;;2.43;1.57;;;10.60;99.90;;;;;;5078591;28;20218;-45
2023/10/09 01:33:22;;;;;;;1.43;1.20;;;10.60;99.90;;;;;;5050127;28;20202;-46
2023/10/09 01:35:52;;;;;;;2.77;1.47;;;10.50;99.90;;;;;;5086168;28;20254;-45
2023/10/09 01:38:30;;;;;;;1.30;1.20;;;10.50;99.90;;;;;;5082509;28;20193;-49
2023/10/09 01:41:06;;;;;;;2.37;1.50;;;10.50;99.90;;;;;;5072651;28;20290;-45
2023/10/09 01:43:35;;;;;;;3.30;1.13;;;10.50;99.90;;;;;;5076769;28;20190;-45
2023/10/09 01:46:04;;;;;;;1.67;1.30;;;10.50;99.90;;;;;;5080364;28;20210;-45
2023/10/09 01:48:35;;;;;;;5.43;1.60;;;10.60;99.90;;;;;;5048724;28;20213;-48
2023/10/09 01:51:05;;;;;;;2.33;1.40;;;10.60;99.90;;;;;;5077198;28;20205;-47
2023/10/09 01:53:33;;;;;;;1.93;1.30;;;10.60;99.90;;;;;;5076252;28;20194;-48
2023/10/09 01:56:14;;;;;;;3.50;1.40;;;10.50;99.90;;;;;;5077251;28;20198;-45
2023/10/09 01:58:43;;;;;;;1.77;1.00;;;10.50;99.90;;;;;;5067394;28;20206;-47
2023/10/09 02:01:09;;;;;;;2.67;1.53;;;10.50;99.90;;;;;;5071166;28;20198;-45
2023/10/09 02:03:38;;;;;;;1.30;1.20;;;10.50;99.90;;;;;;5048750;28;20674;-47
2023/10/09 02:06:24;;;;;;;2.43;1.60;;;10.50;99.90;;;;;;5079625;28;20704;-46
2023/10/09 02:08:54;;;;;;;2.90;1.50;;;10.60;99.90;;;;;;5064421;28;20300;-46
2023/10/09 02:11:24;;;;;;;4.27;1.47;;;10.50;99.90;;;;;;5073068;28;20263;-46
2023/10/09 02:13:57;;;;;;;7.80;1.50;;;10.50;99.90;;;;;;5072238;28;20205;-46
2023/10/09 02:16:29;;;;;;;2.83;1.33;;;10.60;99.90;;;;;;5065167;28;20198;-47
2023/10/09 02:18:58;;;;;;;2.77;1.20;;;10.60;99.90;;;;;;5052755;28;20214;-46
2023/10/09 02:21:34;;;;;;;6.00;1.50;;;10.60;99.90;;;;;;5079333;28;20213;-49
2023/10/09 02:24:09;;;;;;;1.30;1.13;;;10.50;99.90;;;;;;5083348;28;20194;-50
2023/10/09 02:27:06;;;;;;;5.57;1.20;;;10.60;99.90;;;;;;5071954;28;20224;-46
2023/10/09 02:29:28;;;;;;;2.80;1.37;;;10.60;99.90;;;;;;5079700;28;20217;-46
2023/10/09 02:32:00;;;;;;;2.27;1.33;;;10.50;99.90;;;;;;5073292;28;20236;-46
2023/10/09 02:34:29;;;;;;;3.33;1.30;;;10.50;99.90;;;;;;5049155;28;20217;-46
2023/10/09 02:37:04;;;;;;;2.50;1.20;;;10.40;99.90;;;;;;5083212;28;20202;-49
2023/10/09 02:39:36;;;;;;;3.00;1.53;;;10.40;99.90;;;;;;5077368;28;20221;-47
2023/10/09 02:42:19;;;;;;;3.73;1.50;;;10.40;99.90;;;;;;5060838;28;20282;-46
2023/10/09 02:44:49;;;;;;;1.83;1.27;;;10.40;99.90;;;;;;5077824;28;20197;-51
2023/10/09 02:47:20;;;;;;;3.50;1.80;;;10.40;99.90;;;;;;5080606;28;20191;-45
2023/10/09 02:49:50;;;;;;;4.93;1.57;;;10.40;99.90;;;;;;5037797;28;20280;-46
2023/10/09 02:52:24;;;;;;;3.17;1.30;;;10.40;99.90;;;;;;5082380;28;20738;-47
2023/10/09 02:54:59;;;;;;;2.13;1.20;;;10.40;99.90;;;;;;5080256;28;20186;-46
2023/10/09 02:57:35;;;;;;;3.67;1.17;;;10.40;99.90;;;;;;5075300;28;20597;-47
2023/10/09 03:00:08;;;;;;;4.13;1.20;;;10.40;99.90;;;;;;5082941;28;20288;-48
2023/10/09 03:02:39;;;;;;;1.93;1.20;;;10.40;99.90;;;;;;5069444;28;20199;-50
2023/10/09 03:05:11;;;;;;;3.90;2.10;;;10.30;99.90;;;;;;5056264;28;20218;-46
2023/10/09 03:07:39;;;;;;;2.27;1.47;;;10.40;99.90;;;;;;5074441;28;20963;-45
2023/10/09 03:10:09;;;;;;;3.43;1.43;;;10.40;99.90;;;;;;5081848;28;20719;-48
2023/10/09 03:12:36;;;;;;;2.23;1.60;;;10.30;99.90;;;;;;5060601;28;20233;-49
2023/10/09 03:15:08;;;;;;;3.20;1.53;;;10.30;99.90;;;;;;5090250;28;20198;-51
2023/10/09 03:17:35;;;;;;;2.93;1.40;;;10.30;99.90;;;;;;5078079;28;20190;-47
2023/10/09 03:20:11;;;;;;;3.23;1.30;;;10.30;99.90;;;;;;5082522;28;20221;-48
2023/10/09 03:22:39;;;;;;;3.50;1.10;;;10.20;99.90;;;;;;5054795;28;20961;-47
2023/10/09 03:25:11;;;;;;;1.90;1.50;;;10.20;99.90;;;;;;5080852;28;20287;-45
2023/10/09 03:27:41;;;;;;;3.27;1.80;;;10.20;99.90;;;;;;5070494;28;20324;-45
2023/10/09 03:30:16;;;;;;;1.87;1.30;;;10.20;99.90;;;;;;5082830;28;20213;-47
2023/10/09 03:32:50;;;;;;;4.53;1.67;;;10.20;99.90;;;;;;5071026;28;20550;-46
2023/10/09 03:35:24;;;;;;;2.30;1.53;;;10.20;99.90;;;;;;5077993;28;20182;-47
2023/10/09 03:37:52;;;;;;;2.23;1.57;;;10.20;99.90;;;;;;5060683;28;20828;-46
2023/10/09 03:40:21;;;;;;;3.17;1.53;;;10.10;99.90;;;;;;5080671;28;20210;-46
2023/10/09 03:42:48;;;;;;;2.50;1.70;;;10.10;99.90;;;;;;5083474;28;20649;-45
2023/10/09 03:45:24;;;;;;;1.47;1.10;;;10.10;99.90;;;;;;5070959;28;20226;-46
2023/10/09 03:47:57;;;;;;;1.50;1.10;;;10.00;99.90;;;;;;5083772;28;20722;-46
2023/10/09 03:50:29;;;;;;;2.77;1.47;;;10.00;99.90;;;;;;5078759;28;20917;-46
2023/10/09 03:52:56;;;;;;;4.27;1.40;;;10.00;99.90;;;;;;5058175;28;20302;-45
2023/10/09 03:55:27;;;;;;;2.50;1.10;;;10.00;99.90;;;;;;5079336;28;20966;-45
2023/10/09 03:57:57;;;;;;;2.47;1.10;;;10.00;99.90;;;;;;5082958;28;20202;-47
2023/10/09 04:00:27;;;;;;;4.27;1.30;;;10.00;99.90;;;;;;5071023;28;20213;-48
2023/10/09 04:02:54;;;;;;;3.60;1.53;;;10.00;99.90;;;;;;5069687;28;20688;-47
2023/10/09 04:05:21;;;;;;;2.37;1.30;;;10.00;99.90;;;;;;5077907;28;20229;-46
2023/10/09 04:07:49;;;;;;;2.43;1.60;;;10.00;99.90;;;;;;5058260;28;20213;-47
2023/10/09 04:10:32;;;;;;;4.10;1.30;;;10.00;99.90;;;;;;5070296;28;20233;-47
2023/10/09 04:13:08;;;;;;;2.70;1.30;;;9.90;99.90;;;;;;5078736;28;20273;-47
2023/10/09 04:15:35;;;;;;;1.70;1.20;;;9.90;99.90;;;;;;5072397;28;20697;-48
2023/10/09 04:18:04;;;;;;;1.20;1.10;;;9.90;99.90;;;;;;5080752;28;20567;-46
2023/10/09 04:23:16;;;;;;;3.67;1.20;;;9.90;99.90;;;;;;5057003;28;20212;-48
2023/10/09 04:25:42;;;;;;;2.67;1.40;;;9.90;99.90;;;;;;5082023;28;20703;-46
2023/10/09 04:28:18;;;;;;;2.63;1.40;;;9.90;99.90;;;;;;5080405;28;20482;-47
2023/10/09 04:30:53;;;;;;;1.93;1.30;;;9.90;99.90;;;;;;5070296;28;20244;-49
2023/10/09 04:33:34;;;;;;;2.40;1.10;;;9.90;99.90;;;;;;5067719;28;20979;-48
2023/10/09 04:38:55;;;;;;;1.60;1.10;;;9.90;99.90;;;;;;5074138;28;20309;-45
2023/10/09 04:41:28;;;;;;;3.70;1.23;;;9.90;99.90;;;;;;5076368;28;20246;-50
2023/10/09 04:44:13;;;;;;;1.80;1.30;;;9.90;99.90;;;;;;5077463;28;20199;-47
2023/10/09 04:46:43;;;;;;;1.73;1.17;;;9.80;99.90;;;;;;5078551;28;20217;-48
2023/10/09 04:49:27;;;;;;;3.40;1.40;;;9.90;99.90;;;;;;5067485;28;20224;-50
2023/10/09 04:52:04;;;;;;;1.83;1.37;;;9.90;99.90;;;;;;5072386;28;20204;-49
2023/10/09 04:54:39;;;;;;;3.23;1.50;;;9.90;99.90;;;;;;5076510;28;20302;-45
2023/10/09 04:57:17;;;;;;;4.20;1.27;;;9.90;99.90;;;;;;5052529;28;20205;-48
2023/10/09 04:59:48;;;;;;;1.33;0.87;;;10.00;99.90;;;;;;5090153;28;20218;-48
2023/10/09 05:02:19;;;;;;;2.43;1.50;;;9.90;99.90;;;;;;5073432;28;20215;-46
2023/10/09 05:04:48;;;;;;;3.70;1.60;;;10.00;99.90;;;;;;5087378;28;20190;-46
2023/10/09 05:07:54;;;;;;;1.67;1.10;;;10.00;99.90;;;;;;5073144;28;20213;-46
2023/10/09 05:10:16;;;;;;;3.30;1.40;;;10.00;99.90;;;;;;5067823;28;20205;-46
2023/10/09 05:12:46;;;;;;;3.00;1.30;;;9.90;99.90;;;;;;5056392;28;20289;-50
2023/10/09 05:15:15;;;;;;;2.00;1.33;;;9.90;99.90;;;;;;5078102;28;20183;-46
2023/10/09 05:17:51;;;;;;;2.97;1.33;;;9.90;99.90;;;;;;5075215;28;20210;-47
2023/10/09 05:23:26;;;;;;;3.07;1.53;;;9.80;99.90;;;;;;5046651;28;20205;-46
2023/10/09 05:25:55;;;;;;;3.30;1.60;;;9.80;99.90;;;;;;5078483;28;20729;-46
2023/10/09 05:28:30;;;;;;;4.30;1.87;;;9.90;99.90;;;;;;5056116;28;20198;-47
2023/10/09 05:31:09;;;;;;;1.40;1.30;;;9.90;99.90;;;;;;5082411;28;20573;-45
2023/10/09 05:33:36;;;;;;;1.27;1.17;;;9.80;99.90;;;;;;5087143;28;20201;-47
2023/10/09 05:38:58;;;;;;;3.90;1.20;;;9.90;99.90;;;;;;5079137;28;20234;-48
2023/10/09 05:41:45;;;;;;;3.43;1.60;;;9.90;99.90;;;;;;5064178;28;20223;-49
2023/10/09 05:47:35;;;;;;;4.57;1.50;;;9.80;99.90;;;;;;5036461;28;20985;-43
2023/10/09 05:50:33;;;;;;;2.07;1.40;;;9.80;99.90;;;;;;5022444;28;20319;-48
2023/10/09 05:53:17;;;;;;;4.33;1.90;;;9.80;99.90;;;;;;5073701;28;20212;-47
2023/10/09 06:04:15;;;;;;;3.27;1.67;;;9.90;99.90;;;;;;5081983;28;20708;-45
2023/10/09 06:06:45;;;;;;;4.57;1.50;;;9.90;99.90;;;;;;5085791;28;20217;-46
2023/10/09 06:12:49;;;;;;;2.73;1.90;;;9.80;99.90;;;;;;5043390;28;20194;-46
2023/10/09 06:18:25;;;;;;;2.63;1.60;;;9.80;99.90;;;;;;5079184;28;20208;-49
2023/10/09 06:24:01;;;;;;;2.73;1.50;;;9.80;99.90;;;;;;5077488;28;20225;-45
2023/10/09 06:26:23;;;;;;;4.10;2.07;;;9.80;99.90;;;;;;5079617;28;20210;-46
2023/10/09 06:29:13;;;;;;;6.00;1.23;;;9.70;99.90;;;;;;5075602;28;20216;-47
2023/10/09 06:31:57;;;;;;;4.60;1.87;;;9.80;99.90;;;;;;5080589;28;20292;-46
2023/10/09 06:34:32;;;;;;;2.70;1.60;;;9.80;99.90;;;;;;5081018;28;20194;-45
2023/10/09 06:37:07;;;;;;;3.40;1.70;;;9.80;99.90;;;;;;5073793;28;20192;-46
2023/10/09 06:42:33;;;;;;;5.03;1.87;;;9.80;99.90;;;;;;5071165;28;20204;-46
2023/10/09 06:45:06;;;;;;;2.77;1.90;;;9.70;99.90;;;;;;5051317;28;20202;-45
2023/10/09 06:47:40;;;;;;;4.23;1.80;;;9.70;99.90;;;;;;5081626;28;20805;-46
2023/10/09 06:50:25;;;;;;;2.63;1.70;;;9.70;99.90;;;;;;5077072;28;20559;-48
2023/10/09 06:55:49;;;;;;;3.23;1.90;;;9.70;99.90;;;;;;5079906;28;20933;-46
2023/10/09 06:58:22;;;;;;;2.30;1.67;;;9.70;99.90;;;;;;5073572;28;20280;-43
2023/10/09 07:01:19;;;;;;;4.17;2.00;;;9.70;99.90;;;;;;5057773;28;21053;-46
2023/10/09 07:03:51;;;;;;;3.97;1.70;;;9.80;99.90;;;;;;5068972;28;20297;-43
2023/10/09 07:06:23;;;;;;;5.63;1.93;;;9.80;99.90;;;;;;5075202;28;20241;-44
2023/10/09 07:09:15;;;;;;;2.80;2.00;;;9.70;99.90;;;;;;5070227;28;20217;-44
2023/10/09 07:11:57;;;;;;;3.73;1.90;;;9.80;99.90;;;;;;5079857;28;20194;-43
2023/10/09 07:17:23;;;;;;;2.33;1.87;;;9.80;99.90;;;;;;5056121;28;20233;-44
2023/10/09 07:22:39;;;;;;;3.00;2.63;;;9.80;99.90;;;;;;5081981;28;20200;-44
2023/10/09 07:25:27;;;;;;;2.23;2.03;;;9.80;99.90;;;;;;5066585;28;20252;-42
2023/10/09 07:27:55;;;;;;;4.67;2.00;;;9.80;99.90;;;;;;5081998;28;20317;-47
2023/10/09 07:30:38;;;;;;;3.67;2.10;;;9.80;99.90;;;;;;5081376;28;20574;-44
2023/10/09 07:33:16;;;;;;;3.73;2.50;;;9.90;99.90;;;;;;5049968;28;20198;-46
2023/10/09 07:35:47;;;;;;;2.17;1.87;;;9.90;99.90;;;;;;5074530;28;20201;-44
2023/10/09 07:38:19;;;;;;;3.10;2.37;;;9.90;99.90;;;;;;5081712;28;20200;-52
2023/10/09 07:40:56;;;;;;;2.80;2.27;;;9.90;99.90;;;;;;5074668;28;20229;-43
2023/10/09 07:43:26;;;;;;;3.30;2.30;;;9.90;99.90;;;;;;5080258;28;20240;-43
2023/10/09 07:48:48;;;;;;;2.63;2.07;;;10.00;99.90;;;;;;5054350;28;20920;-44
2023/10/09 07:51:16;;;;;;;2.63;2.40;;;10.00;99.90;;;;;;5077932;28;20189;-42
2023/10/09 07:53:44;;;;;;;3.00;2.10;;;10.00;99.90;;;;;;5074154;28;20311;-43
2023/10/09 07:56:13;;;;;;;2.70;2.10;;;10.10;99.90;;;;;;5078781;28;20206;-44
2023/10/09 07:58:47;;;;;;;2.57;2.37;;;10.00;99.90;;;;;;5082768;28;20190;-46
2023/10/09 08:01:23;;;;;;;2.90;2.20;;;10.00;99.90;;;;;;5080335;28;20247;-44
2023/10/09 08:03:57;;;;;;;4.13;2.43;;;10.10;99.90;;;;;;5059164;28;20196;-46
2023/10/09 08:06:42;;;;;;;4.00;2.70;;;10.00;99.90;;;;;;5073156;28;20676;-45
2023/10/09 08:09:28;;;;;;;2.67;2.47;;;10.10;99.90;;;;;;5083173;28;20218;-46
2023/10/09 08:14:45;;;;;;;2.53;2.10;;;10.10;99.90;;;;;;5034790;28;20198;-43
2023/10/09 08:17:14;;;;;;;3.20;2.90;;;10.10;99.90;;;;;;5081463;28;20194;-44
2023/10/09 08:19:53;;;;;;;3.43;2.80;;;10.10;99.90;;;;;;5053459;28;20226;-45
2023/10/09 08:25:08;;;;;;;3.23;2.93;;;10.20;99.90;;;;;;5082315;28;20553;-47
2023/10/09 08:27:54;;;;;;;5.20;3.07;;;10.20;99.90;;;;;;5065140;28;20912;-45
2023/10/09 08:30:28;;;;;;;4.10;3.20;;;10.20;99.90;;;;;;5074904;28;20565;-46
2023/10/09 08:33:02;;;;;;;6.33;3.20;;;10.20;99.90;;;;;;5082046;28;20272;-46
2023/10/09 08:35:29;;;;;;;4.40;3.40;;;10.20;99.90;;;;;;5050039;28;20205;-45
2023/10/09 08:37:58;;;;;;;3.63;3.23;;;10.20;99.90;;;;;;5081938;28;20651;-44
2023/10/09 08:40:33;;;;;;;3.37;3.07;;;10.30;99.90;;;;;;5069691;28;20272;-48
2023/10/09 08:43:10;;;;;;;3.97;3.40;;;10.30;99.90;;;;;;5065859;28;20209;-46
2023/10/09 08:45:40;;;;;;;3.50;3.20;;;10.30;99.90;;;;;;5080778;28;20272;-44
2023/10/09 08:48:15;;;;;;;5.33;3.23;;;10.30;99.90;;;;;;5082376;28;20213;-51
2023/10/09 08:50:43;;;;;;;3.40;3.10;;;10.30;99.90;;;;;;5051444;28;21072;-46
2023/10/09 08:53:11;;;;;;;3.93;3.13;;;10.30;99.90;;;;;;5078255;28;20217;-49
2023/10/09 08:55:39;;;;;;;3.93;2.93;;;10.30;99.90;;;;;;5076768;28;20206;-44
2023/10/09 08:58:13;;;;;;;3.63;3.30;;;10.40;99.90;;;;;;5076885;28;20304;-47
2023/10/09 09:00:45;;;;;;;4.07;3.13;;;10.40;99.90;;;;;;5075230;28;20225;-43
2023/10/09 09:03:12;;;;;;;3.33;3.03;;;10.50;99.90;;;;;;5084348;28;20491;-46
2023/10/09 09:05:39;;;;;;;4.43;3.47;;;10.50;99.90;;;;;;5056231;28;20288;-47
2023/10/09 09:08:24;;;;;;;2.57;2.37;;;10.50;99.90;;;;;;5082199;28;20259;-47
2023/10/09 09:10:58;;;;;;;3.43;2.90;;;10.50;99.90;;;;;;5071548;28;20225;-47
2023/10/09 09:13:31;;;;;;;2.77;2.57;;;10.50;99.90;;;;;;5071146;28;20614;-46
2023/10/09 09:15:58;;;;;;;2.77;2.57;;;10.50;99.90;;;;;;5073431;28;20200;-46
2023/10/09 09:18:31;;;;;;;2.57;2.37;;;10.60;99.90;;;;;;5080580;28;20193;-49
2023/10/09 09:20:59;;;;;;;2.93;2.73;;;10.60;99.90;;;;;;5055738;28;20216;-50
2023/10/09 09:23:27;;;;;;;3.07;2.70;;;10.60;99.90;;;;;;5077369;28;20314;-46
2023/10/09 09:25:59;;;;;;;2.67;2.47;;;10.60;99.90;;;;;;5071783;28;20201;-47
2023/10/09 09:28:32;;;;;;;2.50;2.30;;;10.60;99.90;;;;;;5076029;28;20318;-46
2023/10/09 09:31:12;;;;;;;3.00;2.80;;;10.60;99.90;;;;;;5078586;28;20208;-45
2023/10/09 09:33:43;;;;;;;2.43;2.27;;;10.70;99.90;;;;;;5085434;28;20206;-47
2023/10/09 09:36:11;;;;;;;2.53;2.33;;;10.60;99.90;;;;;;5049174;28;20585;-47
2023/10/09 09:38:48;;;;;;;2.53;2.30;;;10.70;99.90;;;;;;5085460;28;20190;-49
2023/10/09 09:41:23;;;;;;;2.80;2.60;;;10.70;99.90;;;;;;5072972;28;20198;-47
2023/10/09 09:43:56;;;;;;;2.53;2.33;;;10.70;99.90;;;;;;5088643;28;20213;-51
2023/10/09 09:46:32;;;;;;;2.60;2.40;;;10.80;99.90;;;;;;5071754;28;20202;-51
2023/10/09 09:49:01;;;;;;;2.73;2.50;;;10.80;99.90;;;;;;5082378;28;20282;-46
2023/10/09 09:51:30;;;;;;;2.83;2.63;;;10.80;99.90;;;;;;5055039;28;20555;-48
2023/10/09 09:53:57;;;;;;;2.93;2.50;;;10.90;99.90;;;;;;5081518;28;20182;-47
2023/10/09 09:56:26;;;;;;;2.67;2.47;;;10.90;99.90;;;;;;5077814;28;20281;-46
2023/10/09 09:58:56;;;;;;;3.30;2.70;;;10.90;99.90;;;;;;5079142;28;20194;-46
2023/10/09 10:01:27;;;;;;;4.03;2.60;;;11.00;99.90;;;;;;5078696;28;20193;-49
2023/10/09 10:03:57;;;;;;;3.27;2.70;;;11.00;99.90;;;;;;5083375;28;20217;-46
2023/10/09 10:06:26;;;;;;;2.60;2.40;;;11.00;99.90;;;;;;5053572;28;20202;-47
2023/10/09 10:08:54;;;;;;;2.47;2.27;;;11.00;99.90;;;;;;5083462;28;20217;-46
2023/10/09 10:11:44;;;;;;;3.60;2.20;;;11.00;99.90;;;;;;5074838;28;20752;-45
2023/10/09 10:14:21;;;;;;;2.50;2.30;;;11.10;99.90;;;;;;5082329;28;20668;-48
2023/10/09 10:17:16;;;;;;;2.20;2.10;;;11.10;99.90;;;;;;5074661;28;20209;-45
2023/10/09 10:20:26;;;;;;;2.40;2.20;;;11.10;99.90;;;;;;5077715;28;20233;-43
2023/10/09 10:23:07;;;;;;;2.03;1.93;;;11.10;99.90;;;;;;5049312;28;20793;-46
2023/10/09 10:25:41;;;;;;;2.33;2.00;;;11.10;99.90;;;;;;5084246;28;20190;-50
2023/10/09 10:28:28;;;;;;;2.50;2.30;;;11.10;99.90;;;;;;5084075;28;20216;-45
2023/10/09 10:31:00;;;;;;;2.80;2.27;;;11.20;99.90;;;;;;5073084;28;20211;-45
2023/10/09 10:33:27;;;;;;;2.00;1.90;;;11.20;99.90;;;;;;5069813;28;21455;-47
2023/10/09 10:35:55;;;;;;;2.10;1.90;;;11.30;99.90;;;;;;5084262;28;20259;-43
2023/10/09 10:38:32;;;;;;;2.60;2.40;;;11.30;99.90;;;;;;5054819;28;20280;-47
2023/10/09 10:41:17;;;;;;;2.13;1.93;;;11.30;99.90;;;;;;5059208;28;20198;-43
2023/10/09 10:43:59;;;;;;;1.90;1.70;;;11.40;99.90;;;;;;5070705;28;20229;-43
2023/10/09 10:46:41;;;;;;;1.73;1.63;;;11.30;99.90;;;;;;5068060;28;20205;-47
2023/10/09 10:49:20;;;;;;;2.23;2.07;;;11.40;99.90;;;;;;5082044;28;20221;-45
2023/10/09 10:51:49;;;;;;;1.90;1.80;;;11.30;99.90;;;;;;5049884;28;20424;-45
2023/10/09 10:57:28;;;;;;;1.97;1.83;;;11.40;99.90;;;;;;5083687;28;20224;-45
2023/10/09 11:01:11;;;;;;;1.70;1.60;;;11.40;99.90;;;;;;5074555;28;20220;-45
2023/10/09 11:03:13;;;;;;;1.50;1.40;;;11.40;99.90;;;;;;5074217;28;20206;-43
2023/10/09 11:05:50;;;;;;;1.57;1.47;;;11.40;99.90;;;;;;5076893;28;20201;-46
2023/10/09 11:08:22;;;;;;;1.50;1.20;;;11.40;99.90;;;;;;5054495;28;20248;-44
2023/10/09 11:10:54;;;;;;;1.90;1.30;;;11.40;99.90;;;;;;5081107;28;20309;-45
2023/10/09 11:13:30;;;;;;;2.00;1.80;;;11.50;99.90;;;;;;5082492;28;20687;-49
2023/10/09 11:16:14;;;;;;;5.20;1.43;;;11.40;99.90;;;;;;5075083;28;20182;-44
2023/10/09 11:18:46;;;;;;;1.73;1.57;;;11.50;99.90;;;;;;5074566;28;20194;-46
2023/10/09 11:21:31;;;;;;;1.27;1.17;;;11.50;99.90;;;;;;5086229;28;20755;-44
2023/10/09 11:23:59;;;;;;;1.63;1.53;;;11.50;99.90;;;;;;5055368;28;20201;-48
2023/10/09 11:26:28;;;;;;;3.73;1.40;;;11.50;99.90;;;;;;5084542;28;20193;-47
2023/10/09 11:29:16;;;;;;;1.40;1.07;;;11.50;99.90;;;;;;5083859;28;20210;-45
2023/10/09 11:31:59;;;;;;;1.50;1.40;;;11.60;99.90;;;;;;5064292;28;20202;-45
2023/10/09 11:34:31;;;;;;;1.27;1.20;;;11.60;99.90;;;;;;5084391;28;20200;-52
2023/10/09 11:36:59;;;;;;;1.50;1.40;;;11.60;99.90;;;;;;5085650;28;20225;-44
2023/10/09 11:39:38;;;;;;;1.60;1.50;;;11.60;99.90;;;;;;5051327;28;20210;-49
2023/10/09 11:42:06;;;;;;;1.50;1.40;;;11.60;99.90;;;;;;5085030;28;20221;-45
2023/10/09 11:44:39;;;;;;;1.60;1.50;;;11.70;99.90;;;;;;5081317;28;20202;-49
2023/10/09 11:47:22;;;;;;;1.33;1.23;;;11.70;99.90;;;;;;5076688;28;20194;-46
2023/10/09 11:52:36;;;;;;;1.47;1.37;;;11.80;99.90;;;;;;5069155;28;21027;-48
2023/10/09 11:55:06;;;;;;;1.67;1.57;;;11.80;99.90;;;;;;5042588;28;20213;-44
2023/10/09 11:57:33;;;;;;;1.43;1.33;;;11.90;99.90;;;;;;5084680;28;20201;-44
2023/10/09 12:00:06;;;;;;;1.40;1.30;;;11.90;99.90;;;;;;5084355;28;20217;-44
2023/10/09 12:02:43;;;;;;;1.77;1.60;;;12.00;99.90;;;;;;5069307;28;20210;-44
2023/10/09 12:05:16;;;;;;;1.60;1.50;;;12.00;99.90;;;;;;5078347;28;20234;-44
2023/10/09 12:07:44;;;;;;;1.87;1.77;;;12.10;99.90;;;;;;5085088;28;20830;-46
2023/10/09 12:10:13;;;;;;;1.80;1.70;;;12.10;99.90;;;;;;5053460;28;20244;-48
2023/10/09 12:12:46;;;;;;;2.30;2.10;;;12.10;99.90;;;;;;5079692;28;20283;-44
2023/10/09 12:15:17;;;;;;;2.30;2.10;;;12.20;99.90;;;;;;5082062;28;20225;-50
2023/10/09 12:17:46;;;;;;;2.30;2.10;;;12.20;99.90;;;;;;5075722;28;20194;-48
2023/10/09 12:20:30;;;;;;;2.07;1.87;;;12.30;99.90;;;;;;5063706;28;20210;-46
2023/10/09 12:22:58;;;;;;;1.63;1.53;;;12.20;99.90;;;;;;5083866;28;20581;-45
2023/10/09 12:25:25;;;;;;;1.97;1.87;;;12.20;99.90;;;;;;5063892;28;20550;-49
2023/10/09 12:27:56;;;;;;;3.00;1.90;;;12.20;99.90;;;;;;5083952;28;20218;-44
2023/10/09 12:30:26;;;;;;;2.10;1.53;;;12.30;99.90;;;;;;5081961;28;20300;-48
2023/10/09 12:32:54;;;;;;;2.00;1.90;;;12.30;99.90;;;;;;5084119;28;20268;-46
2023/10/09 12:35:24;;;;;;;1.73;1.63;;;12.30;99.90;;;;;;5064668;28;20213;-51
2023/10/09 12:37:52;;;;;;;2.60;1.57;;;12.30;99.90;;;;;;5081105;28;20210;-46
2023/10/09 12:40:24;;;;;;;1.70;1.60;;;12.30;99.90;;;;;;5083767;28;20213;-51
2023/10/09 12:42:52;;;;;;;1.70;1.60;;;12.40;99.90;;;;;;5053159;28;21024;-45
2023/10/09 12:45:25;;;;;;;2.13;1.90;;;12.40;99.90;;;;;;5082809;28;20566;-50
2023/10/09 12:47:53;;;;;;;2.13;1.80;;;12.40;99.90;;;;;;5080495;28;20221;-51
2023/10/09 12:50:27;;;;;;;2.10;2.00;;;12.40;99.90;;;;;;5063212;28;20230;-51
2023/10/09 12:52:56;;;;;;;2.13;2.00;;;12.40;99.90;;;;;;5081708;28;20683;-54
2023/10/09 12:55:31;;;;;;;3.10;2.20;;;12.50;99.90;;;;;;5078779;28;20186;-47
2023/10/09 12:58:06;;;;;;;2.00;1.90;;;12.50;99.90;;;;;;5048927;28;20196;-52
2023/10/09 13:00:36;;;;;;;2.10;2.00;;;12.50;99.90;;;;;;5082304;28;20225;-49
2023/10/09 13:03:16;;;;;;;1.80;1.70;;;12.50;99.90;;;;;;5079052;28;20300;-53
2023/10/09 13:05:55;;;;;;;2.00;1.90;;;12.60;99.90;;;;;;5072619;28;20204;-47
2023/10/09 13:08:24;;;;;;;2.03;1.93;;;12.60;99.90;;;;;;5079085;28;20229;-46
2023/10/09 13:10:58;;;;;;;2.20;2.10;;;12.60;99.90;;;;;;5083697;28;20214;-52
2023/10/09 13:13:41;;;;;;;2.13;2.03;;;12.60;99.90;;;;;;5047640;28;25984;-46
2023/10/09 13:16:13;;;;;;;1.70;1.60;;;12.70;99.90;;;;;;5079899;28;20194;-51
2023/10/09 13:18:41;;;;;;;2.00;1.90;;;12.80;99.90;;;;;;5081615;28;20236;-46
2023/10/09 13:21:10;;;;;;;2.27;2.07;;;12.80;99.90;;;;;;5066001;28;20278;-51
2023/10/09 13:23:39;;;;;;;1.90;1.80;;;12.80;99.90;;;;;;5081445;28;20268;-45
2023/10/09 13:26:18;;;;;;;1.63;1.53;;;12.90;99.90;;;;;;5078037;28;20664;-52
2023/10/09 13:28:46;;;;;;;1.87;1.77;;;13.00;99.90;;;;;;5051746;28;20294;-45
2023/10/09 13:31:14;;;;;;;2.47;1.90;;;13.00;99.90;;;;;;5078138;28;20926;-46
2023/10/09 13:33:42;;;;;;;2.10;1.93;;;13.00;99.90;;;;;;5075601;28;20751;-51
2023/10/09 13:36:17;;;;;;;4.20;2.60;;;13.00;99.90;;;;;;5072379;28;21279;-45
2023/10/09 13:38:44;;;;;;;2.70;2.50;;;13.10;99.90;;;;;;5068088;28;20205;-49
2023/10/09 13:41:14;;;;;;;1.90;1.80;;;13.10;99.90;;;;;;5072009;28;20545;-52
2023/10/09 13:43:42;;;;;;;2.07;1.97;;;13.10;99.90;;;;;;5060161;28;20216;-45
2023/10/09 13:46:11;;;;;;;2.40;2.20;;;13.10;99.90;;;;;;5084624;28;20194;-52
2023/10/09 13:48:40;;;;;;;2.60;2.40;;;13.10;99.90;;;;;;5073271;28;20225;-48
2023/10/09 13:51:13;;;;;;;2.40;2.20;;;13.20;99.90;;;;;;5077200;28;20194;-50
2023/10/09 13:53:45;;;;;;;2.60;2.50;;;13.20;99.90;;;;;;5080738;28;20214;-48
2023/10/09 13:56:18;;;;;;;2.67;2.47;;;13.30;99.90;;;;;;5077326;28;20200;-52
2023/10/09 13:58:50;;;;;;;2.20;2.10;;;13.30;99.90;;;;;;5056329;28;20221;-45
2023/10/09 14:01:26;;;;;;;2.73;2.53;;;13.30;99.90;;;;;;5078528;28;20186;-47
2023/10/09 14:03:57;;;;;;;2.90;2.53;;;13.30;99.90;;;;;;5072915;28;20204;-44
2023/10/09 14:06:32;;;;;;;2.93;2.73;;;13.30;99.90;;;;;;5083450;28;20243;-50
2023/10/09 14:09:03;;;;;;;2.63;2.43;;;13.30;99.90;;;;;;5057185;28;20225;-50
2023/10/09 14:11:30;;;;;;;2.87;2.67;;;13.30;99.90;;;;;;5068509;28;20292;-54
2023/10/09 14:13:59;;;;;;;2.83;2.63;;;13.30;99.90;;;;;;5048262;28;20214;-50
2023/10/09 14:16:28;;;;;;;3.00;2.70;;;13.30;99.90;;;;;;5088006;28;20259;-50
2023/10/09 14:18:59;;;;;;;3.00;2.80;;;13.30;99.90;;;;;;5075695;28;20226;-45